• Join FlightAware (Why Join?)
  • Login
  • US Flag 
10:35AM EDT


 

Airport Tracker/Info


-or-


 

Live Flight TrackerFlight Track Log ✈ N327PA ✈ 2013年07月15日 ✈ KDAN - W63

Flight Track Log - Related Links

Times and Time Zones

All times are in EDT time to prevent confusion due to time zone crossing. See the N327PA flight status page for this flight to view local times or setup timezone preferences in your user account.

Time Position Orientation Groundspeed Altitude Reporting Facility
EDT Latitude Longitude Course Direction KTS MPH feet Rate Location/Type
05:59PM 36.5819 -79.0509 88° East  Level Estimated
06:00PM 36.5827 -79.0223 88° East  Level Estimated
06:01PM 36.5836 -78.9938 88° East  Level Estimated
06:02PM 36.5844 -78.9653 88° East  Level Estimated
06:03PM 36.5853 -78.9368 88° East  Level Estimated
06:04PM 36.5861 -78.9082 88° East  Level Estimated
06:05PM 36.5869 -78.8797 88° East  Level Estimated
06:06PM 36.5878 -78.8512 88° East  Level Estimated
06:07PM 36.5886 -78.8226 88° East  Level Estimated
06:08PM 36.5894 -78.7941 88° East  Level Estimated
06:09PM 36.5902 -78.7656 88° East  Level Estimated
06:10PM 36.5910 -78.7370 88° East  Level Estimated
06:11PM 36.5918 -78.7085 88° East  Level Estimated
06:12PM 36.5925 -78.6800 88° East  Level Estimated
06:13PM 36.5933 -78.6514 88° East  Level Estimated
06:14PM 36.5941 -78.6229 88° East  Level Estimated
06:15PM 36.5948 -78.5944 88° East  Level Estimated
06:16PM 36.5956 -78.5658 88° East  Level Estimated
06:17PM 36.5957 -78.5601 88° East  Level Estimated
06:18PM 36.5957 -78.5601 90° East  Level Estimated
06:19PM 36.5957 -78.5601 90° East  Level Estimated
06:20PM 36.5957 -78.5601 90° East  Level Estimated
06:21PM 36.5957 -78.5601 90° East  Level Estimated
06:22PM 36.5957 -78.5601 90° East  Level Estimated
06:23PM 36.5957 -78.5601 90° East  Level Estimated
06:24PM 36.5957 -78.5601 90° East  Level Estimated
06:25PM 36.5957 -78.5601 90° East  Level Estimated
06:26PM 36.5957 -78.5601 90° East  Level Estimated
06:27PM 36.5957 -78.5601 90° East  Level Estimated
06:28PM 36.5957 -78.5601 90° East  Level Estimated
06:29PM 36.5957 -78.5601 90° East  Level Estimated
06:30PM 36.5957 -78.5601 90° East  Level Estimated
06:31PM 36.5957 -78.5601 90° East  Level Estimated
06:32PM 36.5957 -78.5601 90° East  Level Estimated